createdAt,value
2018-09-24T00:00:31.367Z,9.30
2018-09-24T00:03:00.701Z,9.30
2018-09-24T00:05:29.894Z,9.30
2018-09-24T00:07:59.154Z,9.30
2018-09-24T00:10:28.318Z,9.30
2018-09-24T00:12:57.466Z,9.40
2018-09-24T00:15:26.597Z,9.40
2018-09-24T00:17:55.673Z,9.40
2018-09-24T00:20:24.754Z,9.30
2018-09-24T00:22:53.845Z,9.30
2018-09-24T00:25:22.900Z,9.30
2018-09-24T00:27:51.938Z,9.40
2018-09-24T00:30:21.039Z,9.40
2018-09-24T00:32:50.181Z,9.50
2018-09-24T00:37:56.881Z,9.50
2018-09-24T00:40:26.025Z,9.40
2018-09-24T00:42:55.146Z,9.40
2018-09-24T00:45:24.212Z,9.30
2018-09-24T00:47:53.395Z,9.30
2018-09-24T00:50:38.443Z,9.20
2018-09-24T00:53:07.830Z,9.20
2018-09-24T00:55:37.078Z,9.20
2018-09-24T00:58:06.773Z,9.10
2018-09-24T01:00:36.849Z,9.10
2018-09-24T01:03:06.055Z,9.10
2018-09-24T01:05:35.147Z,9.00
2018-09-24T01:08:04.294Z,9.10
2018-09-24T01:10:33.421Z,9.00
2018-09-24T01:13:02.474Z,9.00
2018-09-24T01:15:31.645Z,9.00
2018-09-24T01:18:00.697Z,9.00
2018-09-24T01:20:29.809Z,9.00
2018-09-24T01:25:38.039Z,9.00
2018-09-24T01:28:07.238Z,8.90
2018-09-24T01:30:36.259Z,8.90
2018-09-24T01:33:05.484Z,8.90
2018-09-24T01:35:34.553Z,8.90
2018-09-24T01:38:03.623Z,8.80
2018-09-24T01:40:33.297Z,8.80
2018-09-24T01:43:03.665Z,8.80
2018-09-24T01:45:32.903Z,8.80
2018-09-24T01:48:02.025Z,8.70
2018-09-24T01:50:31.090Z,8.80
2018-09-24T01:53:05.019Z,8.90
2018-09-24T01:55:34.143Z,8.90
2018-09-24T01:58:03.284Z,8.90
2018-09-24T02:00:32.359Z,8.90
2018-09-24T02:03:01.572Z,8.90
2018-09-24T02:05:30.693Z,8.80
2018-09-24T02:07:59.814Z,8.70
2018-09-24T02:10:28.928Z,8.70
2018-09-24T02:12:58.568Z,8.70
2018-09-24T02:15:32.271Z,8.70
2018-09-24T02:18:01.596Z,8.60
2018-09-24T02:20:30.700Z,8.60
2018-09-24T02:22:59.913Z,8.60
2018-09-24T02:25:29.071Z,8.60
2018-09-24T02:27:58.204Z,8.60
2018-09-24T02:30:27.446Z,8.60
2018-09-24T02:32:56.755Z,8.60
2018-09-24T02:35:25.990Z,8.60
2018-09-24T02:37:55.386Z,8.60
2018-09-24T02:40:25.305Z,8.60
2018-09-24T02:42:54.560Z,8.60
2018-09-24T02:45:24.238Z,8.50
2018-09-24T02:47:53.553Z,8.60
2018-09-24T02:50:31.790Z,8.60
2018-09-24T02:53:00.940Z,8.50
2018-09-24T02:55:30.992Z,8.60
2018-09-24T02:58:00.271Z,8.60
2018-09-24T03:00:29.573Z,8.50
2018-09-24T03:02:58.671Z,8.60
2018-09-24T03:05:27.872Z,8.60
2018-09-24T03:07:57.026Z,8.60
2018-09-24T03:10:26.121Z,8.60
2018-09-24T03:12:59.762Z,8.70
2018-09-24T03:15:36.160Z,8.70
2018-09-24T03:18:05.627Z,8.60
2018-09-24T03:20:38.509Z,8.60
2018-09-24T03:23:07.934Z,8.60
2018-09-24T03:26:01.006Z,8.60
2018-09-24T03:28:30.076Z,8.60
2018-09-24T03:30:59.095Z,8.50
2018-09-24T03:33:29.123Z,8.50
2018-09-24T03:35:58.262Z,8.50
2018-09-24T03:38:27.277Z,8.50
2018-09-24T03:40:56.330Z,8.50
2018-09-24T03:43:25.365Z,8.60
2018-09-24T03:45:55.151Z,8.50
2018-09-24T03:48:33.308Z,8.50
2018-09-24T03:51:02.347Z,8.60
2018-09-24T03:53:31.387Z,8.70
2018-09-24T03:56:00.433Z,8.80
2018-09-24T03:58:29.498Z,8.90
2018-09-24T04:00:58.506Z,8.90
2018-09-24T04:03:27.586Z,8.90
2018-09-24T04:06:02.028Z,8.90
2018-09-24T04:08:36.372Z,9.00
2018-09-24T04:11:10.861Z,9.10
2018-09-24T04:13:45.338Z,9.20
2018-09-24T04:16:19.785Z,9.10
2018-09-24T04:19:26.567Z,9.20
2018-09-24T04:22:00.986Z,9.10
2018-09-24T04:24:35.401Z,9.00
2018-09-24T04:27:15.735Z,9.00
2018-09-24T04:30:20.438Z,8.90
2018-09-24T04:32:54.897Z,8.90
2018-09-24T04:35:29.318Z,8.80
2018-09-24T04:38:03.568Z,8.70
2018-09-24T04:40:38.676Z,8.80
2018-09-24T04:43:13.188Z,8.70
2018-09-24T04:45:47.553Z,8.60
2018-09-24T04:48:22.033Z,8.60
2018-09-24T04:50:56.331Z,8.60
2018-09-24T04:53:31.467Z,8.60
2018-09-24T04:56:05.895Z,8.50
2018-09-24T04:58:51.516Z,8.50
2018-09-24T05:01:26.074Z,8.50
2018-09-24T05:04:00.538Z,8.50
2018-09-24T05:06:34.982Z,8.50
2018-09-24T05:09:10.541Z,8.50
2018-09-24T05:11:44.883Z,8.50
2018-09-24T05:14:19.249Z,8.60
2018-09-24T05:16:53.661Z,8.60
2018-09-24T05:19:28.119Z,8.70
2018-09-24T05:22:02.741Z,8.90
2018-09-24T05:24:37.065Z,9.00
2018-09-24T05:27:12.705Z,9.10
2018-09-24T05:29:47.027Z,9.10
2018-09-24T05:32:21.493Z,9.10
2018-09-24T05:34:56.623Z,9.10
2018-09-24T05:37:31.136Z,9.00
2018-09-24T05:40:05.635Z,8.90
2018-09-24T05:42:39.925Z,8.80
2018-09-24T05:45:14.461Z,8.80
2018-09-24T05:47:48.993Z,8.80
2018-09-24T05:50:23.412Z,8.80
2018-09-24T05:52:57.989Z,8.80
2018-09-24T05:55:32.257Z,8.80
2018-09-24T05:58:06.883Z,8.90
2018-09-24T06:00:41.318Z,8.90
2018-09-24T06:03:16.615Z,8.80
2018-09-24T06:05:51.091Z,8.80
2018-09-24T06:08:25.707Z,8.80
2018-09-24T06:11:00.124Z,8.90
2018-09-24T06:13:34.669Z,8.80
2018-09-24T06:16:09.137Z,8.60
2018-09-24T06:18:43.643Z,8.50
2018-09-24T06:21:18.113Z,8.50
2018-09-24T06:23:52.875Z,8.40
2018-09-24T06:26:27.254Z,8.40
2018-09-24T06:29:01.635Z,8.40
2018-09-24T06:31:35.976Z,8.40
2018-09-24T06:34:10.405Z,8.50
2018-09-24T06:36:44.667Z,8.50
2018-09-24T06:39:19.002Z,8.60
2018-09-24T06:41:53.433Z,8.70
2018-09-24T06:47:10.024Z,9.00
2018-09-24T06:49:45.330Z,9.20
2018-09-24T06:52:19.815Z,9.40
2018-09-24T06:54:55.227Z,9.70
2018-09-24T06:57:29.793Z,9.70
2018-09-24T07:00:04.030Z,9.70
2018-09-24T07:02:38.665Z,9.40
2018-09-24T07:05:13.140Z,9.10
2018-09-24T07:07:47.457Z,9.00
2018-09-24T07:10:22.171Z,8.90
2018-09-24T07:12:56.779Z,8.90
2018-09-24T07:15:31.293Z,9.00
2018-09-24T07:18:07.003Z,9.00
2018-09-24T07:20:44.325Z,9.10
2018-09-24T07:23:18.836Z,9.20
2018-09-24T07:25:53.113Z,9.30
2018-09-24T07:28:28.028Z,9.40
2018-09-24T07:31:02.482Z,9.50
2018-09-24T07:33:36.900Z,9.60
2018-09-24T07:36:11.284Z,9.70
2018-09-24T07:38:45.751Z,9.80
2018-09-24T07:41:22.745Z,10.00
2018-09-24T07:43:57.874Z,10.10
2018-09-24T07:46:32.215Z,10.10
2018-09-24T07:49:06.667Z,10.20
2018-09-24T07:51:41.954Z,10.30
2018-09-24T07:54:16.525Z,10.40
2018-09-24T07:56:51.086Z,10.50
2018-09-24T07:59:25.467Z,10.60
2018-09-24T08:01:59.847Z,10.70
2018-09-24T08:04:34.059Z,10.80
2018-09-24T08:07:08.434Z,10.90
2018-09-24T08:09:43.091Z,11.00
2018-09-24T08:12:17.315Z,11.10
2018-09-24T08:14:52.501Z,11.30
2018-09-24T08:17:26.994Z,11.40
2018-09-24T08:20:01.440Z,11.50
2018-09-24T08:22:36.602Z,11.70
2018-09-24T08:25:11.042Z,11.90
2018-09-24T08:27:45.383Z,12.20
2018-09-24T08:30:20.122Z,12.50
2018-09-24T08:32:55.098Z,12.50
2018-09-24T08:35:34.018Z,12.10
2018-09-24T08:38:10.434Z,11.40
2018-09-24T08:40:45.218Z,10.80
2018-09-24T08:43:20.559Z,10.60
2018-09-24T08:45:55.089Z,10.70
2018-09-24T08:48:30.036Z,10.80
2018-09-24T08:51:04.566Z,11.00
2018-09-24T08:53:39.112Z,11.30
2018-09-24T08:56:13.460Z,11.50
2018-09-24T08:58:48.372Z,11.70
2018-09-24T09:01:23.672Z,11.70
2018-09-24T09:03:58.262Z,11.90
2018-09-24T09:06:35.276Z,12.10
2018-09-24T09:09:14.857Z,12.10
2018-09-24T09:11:50.385Z,12.20
2018-09-24T09:14:24.939Z,12.20
2018-09-24T09:17:00.380Z,12.00
2018-09-24T09:19:37.955Z,12.10
2018-09-24T09:22:12.518Z,12.10
2018-09-24T09:24:47.479Z,12.10
2018-09-24T09:27:21.952Z,12.10
2018-09-24T09:29:57.668Z,12.30
2018-09-24T09:32:32.931Z,12.30
2018-09-24T09:35:08.633Z,12.30
2018-09-24T09:37:44.059Z,12.20
2018-09-24T09:40:18.650Z,12.20
2018-09-24T09:42:53.657Z,12.10
2018-09-24T09:45:28.075Z,12.10
2018-09-24T09:48:02.580Z,12.20
2018-09-24T09:50:37.062Z,12.40
2018-09-24T09:53:12.161Z,12.40
2018-09-24T09:55:47.140Z,12.50
2018-09-24T09:58:21.822Z,12.40
2018-09-24T10:00:57.294Z,12.30
2018-09-24T10:03:32.476Z,12.10
2018-09-24T10:06:07.606Z,12.00
2018-09-24T10:08:42.438Z,12.00
2018-09-24T10:11:18.254Z,12.00
2018-09-24T10:13:52.621Z,12.00
2018-09-24T10:16:27.955Z,12.00
2018-09-24T10:19:02.553Z,11.80
2018-09-24T10:21:37.813Z,11.70
2018-09-24T10:24:13.158Z,11.70
2018-09-24T10:26:48.163Z,11.70
2018-09-24T10:29:22.648Z,11.60
2018-09-24T10:31:57.043Z,11.50
2018-09-24T10:34:32.060Z,11.60
2018-09-24T10:37:06.464Z,11.50
2018-09-24T10:39:42.823Z,11.20
2018-09-24T10:42:17.199Z,11.00
2018-09-24T10:44:51.722Z,10.90
2018-09-24T10:47:26.429Z,10.80
2018-09-24T10:50:00.816Z,10.90
2018-09-24T10:52:35.257Z,11.10
2018-09-24T10:55:09.681Z,11.40
2018-09-24T10:57:44.294Z,11.60
2018-09-24T11:00:18.925Z,11.50
2018-09-24T11:02:53.388Z,11.40
2018-09-24T11:05:27.668Z,11.20
2018-09-24T11:08:02.425Z,11.10
2018-09-24T11:10:36.791Z,11.00
2018-09-24T11:13:11.939Z,11.10
2018-09-24T11:15:46.432Z,11.10
2018-09-24T11:18:21.166Z,11.20
2018-09-24T11:20:55.500Z,11.30
2018-09-24T11:23:29.956Z,11.30
2018-09-24T11:26:04.465Z,11.30
2018-09-24T11:28:38.973Z,11.30
2018-09-24T11:31:13.370Z,11.40
2018-09-24T11:33:47.938Z,11.60
2018-09-24T11:36:22.345Z,11.80
2018-09-24T11:38:56.817Z,12.10
2018-09-24T11:41:33.067Z,12.10
2018-09-24T11:44:07.311Z,12.20
2018-09-24T11:46:41.749Z,12.30
2018-09-24T11:49:15.921Z,12.30
2018-09-24T11:51:50.659Z,12.50
2018-09-24T11:54:25.275Z,12.60
2018-09-24T11:56:59.646Z,12.70
2018-09-24T11:59:34.644Z,12.90
2018-09-24T12:02:10.287Z,12.90
2018-09-24T12:04:46.307Z,12.70
2018-09-24T12:07:20.818Z,12.70
2018-09-24T12:09:55.919Z,12.60
2018-09-24T12:12:36.873Z,12.60
2018-09-24T12:15:11.198Z,12.40
2018-09-24T12:17:45.891Z,12.50
2018-09-24T12:20:22.797Z,12.70
2018-09-24T12:22:58.814Z,12.90
2018-09-24T12:25:34.346Z,13.10
2018-09-24T12:28:08.857Z,13.30
2018-09-24T12:30:43.328Z,13.50
2018-09-24T12:33:17.759Z,13.50
2018-09-24T12:35:52.650Z,13.20
2018-09-24T12:38:28.126Z,13.30
2018-09-24T12:41:02.623Z,13.40
2018-09-24T12:43:38.316Z,13.40
2018-09-24T12:46:13.491Z,13.00
2018-09-24T12:48:48.077Z,12.80
2018-09-24T12:51:22.535Z,12.50
2018-09-24T12:53:56.829Z,12.00
2018-09-24T12:56:31.744Z,11.40
2018-09-24T12:59:05.998Z,11.20
2018-09-24T13:01:40.465Z,11.20
2018-09-24T13:04:16.073Z,11.20
2018-09-24T13:06:50.416Z,11.30
2018-09-24T13:09:24.955Z,11.40
2018-09-24T13:11:59.319Z,11.60
2018-09-24T13:14:34.950Z,11.80
2018-09-24T13:17:09.168Z,12.00
2018-09-24T13:19:43.666Z,12.10
2018-09-24T13:22:18.093Z,12.20
2018-09-24T13:27:44.458Z,12.50
2018-09-24T13:30:19.305Z,12.50
2018-09-24T13:32:53.820Z,12.50
2018-09-24T13:35:28.258Z,12.50
2018-09-24T13:38:02.545Z,12.50
2018-09-24T13:40:41.993Z,12.40
2018-09-24T13:43:17.338Z,12.40
2018-09-24T13:45:51.902Z,12.40
2018-09-24T13:48:26.411Z,12.40
2018-09-24T13:51:00.818Z,12.50
2018-09-24T13:53:35.183Z,12.40
2018-09-24T13:56:09.611Z,12.20
2018-09-24T13:58:43.949Z,12.10
2018-09-24T14:01:18.389Z,12.20
2018-09-24T14:03:52.780Z,12.20
2018-09-24T14:06:27.092Z,12.40
2018-09-24T14:09:05.034Z,12.20
2018-09-24T14:11:39.622Z,12.20
2018-09-24T14:14:14.226Z,12.30
2018-09-24T14:16:50.544Z,12.20
2018-09-24T14:19:25.251Z,12.30
2018-09-24T14:21:59.729Z,12.40
2018-09-24T14:24:34.234Z,12.20
2018-09-24T14:27:09.713Z,12.30
2018-09-24T14:29:43.928Z,12.30
2018-09-24T14:32:27.496Z,12.10
2018-09-24T14:35:02.409Z,12.10
2018-09-24T14:37:36.883Z,12.10
2018-09-24T14:40:11.255Z,12.10
2018-09-24T14:42:45.595Z,12.10
2018-09-24T14:45:19.987Z,12.20
2018-09-24T14:47:54.386Z,12.20
2018-09-24T14:50:28.870Z,12.20
2018-09-24T14:53:03.265Z,12.20
2018-09-24T14:55:37.622Z,12.30
2018-09-24T14:58:12.523Z,12.50
2018-09-24T15:00:48.109Z,12.50
2018-09-24T15:03:22.730Z,12.40
2018-09-24T15:05:57.632Z,12.30
2018-09-24T15:08:32.044Z,11.60
2018-09-24T15:11:06.589Z,11.10
2018-09-24T15:13:41.635Z,10.90
2018-09-24T15:16:16.187Z,10.70
2018-09-24T15:18:50.674Z,10.60
2018-09-24T15:21:25.299Z,10.80
2018-09-24T15:23:59.980Z,10.90
2018-09-24T15:26:34.332Z,11.00
2018-09-24T15:29:08.718Z,11.10
2018-09-24T15:31:43.052Z,11.10
2018-09-24T15:34:17.577Z,11.10
2018-09-24T15:36:51.901Z,11.00
2018-09-24T15:39:26.603Z,11.00
2018-09-24T15:42:01.066Z,11.00
2018-09-24T15:44:36.565Z,11.00
2018-09-24T15:47:12.155Z,11.00
2018-09-24T15:49:46.829Z,10.90
2018-09-24T15:52:21.689Z,10.80
2018-09-24T15:54:55.996Z,10.80
2018-09-24T15:57:30.504Z,10.80
2018-09-24T16:00:05.106Z,10.90
2018-09-24T16:02:39.554Z,10.80
2018-09-24T16:05:15.141Z,10.70
2018-09-24T16:07:49.453Z,10.60
2018-09-24T16:10:23.787Z,10.50
2018-09-24T16:12:58.317Z,10.50
2018-09-24T16:15:32.720Z,10.40
2018-09-24T16:18:08.192Z,10.40
2018-09-24T16:20:42.672Z,10.40
2018-09-24T16:23:17.107Z,10.40
2018-09-24T16:25:51.487Z,10.40
2018-09-24T16:28:25.894Z,10.40
2018-09-24T16:31:00.304Z,10.40
2018-09-24T16:33:34.813Z,10.40
2018-09-24T16:36:09.339Z,10.30
2018-09-24T16:38:43.962Z,10.20
2018-09-24T16:41:18.339Z,10.20
2018-09-24T16:43:53.173Z,10.10
2018-09-24T16:46:27.690Z,10.10
2018-09-24T16:49:02.221Z,10.00
2018-09-24T16:51:36.771Z,9.90
2018-09-24T16:54:11.101Z,9.80
2018-09-24T16:56:45.664Z,9.80
2018-09-24T16:59:20.089Z,9.70
2018-09-24T17:01:54.508Z,9.70
2018-09-24T17:04:29.704Z,9.60
2018-09-24T17:07:04.130Z,9.60
2018-09-24T17:09:39.372Z,9.60
2018-09-24T17:12:13.742Z,9.60
2018-09-24T17:14:48.218Z,9.60
2018-09-24T17:17:22.826Z,9.60
2018-09-24T17:19:57.132Z,9.60
2018-09-24T17:22:32.626Z,9.60
2018-09-24T17:25:07.194Z,9.50
2018-09-24T17:27:41.642Z,9.50
2018-09-24T17:30:16.783Z,9.40
2018-09-24T17:32:51.136Z,9.40
2018-09-24T17:35:26.293Z,9.40
2018-09-24T17:38:01.524Z,9.40
2018-09-24T17:40:36.154Z,9.40
2018-09-24T17:43:23.201Z,9.30
2018-09-24T17:45:57.851Z,9.30
2018-09-24T17:48:32.287Z,9.30
2018-09-24T17:51:06.791Z,9.30
2018-09-24T17:53:41.358Z,9.20
2018-09-24T17:56:15.829Z,9.20
2018-09-24T17:58:50.574Z,9.20
2018-09-24T18:01:25.013Z,9.10
2018-09-24T18:03:59.857Z,9.10
2018-09-24T18:06:34.268Z,9.00
2018-09-24T18:09:08.982Z,9.00
2018-09-24T18:11:44.207Z,8.90
2018-09-24T18:14:18.594Z,8.90
2018-09-24T18:16:53.035Z,8.80
2018-09-24T18:19:27.480Z,8.80
2018-09-24T18:22:02.159Z,8.80
2018-09-24T18:24:36.717Z,8.80
2018-09-24T18:27:11.082Z,8.80
2018-09-24T18:29:45.448Z,8.70
2018-09-24T18:32:19.850Z,8.70
2018-09-24T18:34:54.674Z,8.60
2018-09-24T18:37:30.087Z,8.60
2018-09-24T18:40:05.647Z,8.60
2018-09-24T18:42:40.139Z,8.60
2018-09-24T18:45:14.627Z,8.60
2018-09-24T18:48:04.417Z,8.60
2018-09-24T18:50:39.182Z,8.60
2018-09-24T18:53:13.929Z,8.60
2018-09-24T18:55:49.101Z,8.50
2018-09-24T18:58:23.509Z,8.50
2018-09-24T19:00:59.222Z,8.50
2018-09-24T19:03:33.674Z,8.40
2018-09-24T19:06:11.173Z,8.40
2018-09-24T19:08:46.257Z,8.30
2018-09-24T19:11:27.785Z,8.40
2018-09-24T19:13:55.031Z,8.30
2018-09-24T19:16:29.496Z,8.30
2018-09-24T19:19:04.210Z,8.30
2018-09-24T19:21:39.341Z,8.30
2018-09-24T19:24:15.771Z,8.30
2018-09-24T19:26:50.600Z,8.20
2018-09-24T19:29:25.201Z,8.20
2018-09-24T19:32:00.071Z,8.20
2018-09-24T19:34:34.783Z,8.30
2018-09-24T19:37:11.062Z,8.20
2018-09-24T19:39:51.625Z,8.10
2018-09-24T19:42:31.674Z,8.20
2018-09-24T19:45:06.549Z,8.10
2018-09-24T19:47:41.126Z,8.10
2018-09-24T19:50:16.770Z,8.00
2018-09-24T19:52:52.005Z,8.00
2018-09-24T19:55:26.466Z,8.00
2018-09-24T19:58:00.894Z,8.00
2018-09-24T20:00:35.429Z,8.00
2018-09-24T20:03:09.829Z,8.00
2018-09-24T20:05:44.567Z,8.00
2018-09-24T20:08:19.068Z,8.00
2018-09-24T20:10:53.557Z,7.90
2018-09-24T20:13:27.906Z,7.90
2018-09-24T20:16:02.443Z,7.90
2018-09-24T20:18:37.497Z,7.90
2018-09-24T20:21:12.102Z,7.80
2018-09-24T20:23:46.601Z,7.80
2018-09-24T20:26:21.469Z,7.80
2018-09-24T20:29:03.088Z,7.80
2018-09-24T20:31:38.941Z,7.80
2018-09-24T20:34:13.861Z,7.70
2018-09-24T20:36:50.631Z,7.70
2018-09-24T20:39:25.921Z,7.80
2018-09-24T20:42:00.394Z,7.80
2018-09-24T20:44:35.730Z,7.80
2018-09-24T20:47:10.965Z,7.80
2018-09-24T20:49:45.800Z,7.80
2018-09-24T20:52:21.657Z,7.80
2018-09-24T20:54:56.761Z,7.80
2018-09-24T20:57:31.215Z,7.70
2018-09-24T21:00:05.618Z,7.70
2018-09-24T21:02:40.117Z,7.70
2018-09-24T21:05:14.668Z,7.70
2018-09-24T21:07:54.407Z,7.70
2018-09-24T21:10:34.339Z,7.60
2018-09-24T21:13:08.933Z,7.60
2018-09-24T21:15:43.469Z,7.60
2018-09-24T21:18:17.861Z,7.60
2018-09-24T21:20:52.247Z,7.60
2018-09-24T21:23:26.916Z,7.60
2018-09-24T21:26:01.646Z,7.60
2018-09-24T21:28:36.366Z,7.60
2018-09-24T21:31:10.850Z,7.60
2018-09-24T21:33:45.214Z,7.60
2018-09-24T21:36:19.920Z,7.60
2018-09-24T21:38:56.231Z,7.60
2018-09-24T21:41:30.876Z,7.60
2018-09-24T21:44:05.450Z,7.60
2018-09-24T21:46:40.201Z,7.60
2018-09-24T21:49:14.989Z,7.60
2018-09-24T21:51:49.724Z,7.60
2018-09-24T21:54:24.807Z,7.60
2018-09-24T21:56:59.276Z,7.60
2018-09-24T21:59:33.735Z,7.60
2018-09-24T22:02:08.279Z,7.60
2018-09-24T22:04:42.896Z,7.50
2018-09-24T22:07:17.353Z,7.60
2018-09-24T22:09:52.019Z,7.60
2018-09-24T22:12:26.358Z,7.50
2018-09-24T22:15:00.789Z,7.50
2018-09-24T22:17:36.694Z,7.50
2018-09-24T22:20:11.162Z,7.50
2018-09-24T22:22:45.611Z,7.50
2018-09-24T22:25:20.082Z,7.60
2018-09-24T22:27:54.692Z,7.50
2018-09-24T22:30:29.392Z,7.40
2018-09-24T22:33:03.838Z,7.40
2018-09-24T22:35:38.767Z,7.50
2018-09-24T22:38:13.462Z,7.50
2018-09-24T22:40:47.903Z,7.40
2018-09-24T22:43:31.509Z,7.40
2018-09-24T22:46:06.094Z,7.50
2018-09-24T22:48:40.757Z,7.80
2018-09-24T22:51:15.285Z,7.80
2018-09-24T22:53:49.693Z,7.70
2018-09-24T22:56:24.242Z,7.70
2018-09-24T22:58:58.756Z,7.70
2018-09-24T23:01:42.755Z,7.60
2018-09-24T23:04:17.393Z,7.60
2018-09-24T23:06:51.791Z,7.70
2018-09-24T23:09:26.195Z,7.70
2018-09-24T23:12:00.706Z,7.70
2018-09-24T23:14:39.648Z,7.70
2018-09-24T23:17:16.245Z,7.60
2018-09-24T23:19:51.144Z,7.70
2018-09-24T23:22:25.706Z,7.70
2018-09-24T23:25:14.130Z,7.60
2018-09-24T23:27:48.952Z,7.60
2018-09-24T23:30:23.607Z,7.50
2018-09-24T23:32:58.121Z,7.50
2018-09-24T23:35:32.389Z,7.40
2018-09-24T23:38:06.889Z,7.40
2018-09-24T23:40:41.394Z,7.30
2018-09-24T23:43:15.857Z,7.20
2018-09-24T23:45:50.486Z,7.20
2018-09-24T23:48:24.867Z,7.20
2018-09-24T23:50:59.216Z,7.20
2018-09-24T23:53:33.789Z,7.20
2018-09-24T23:56:08.175Z,7.20
2018-09-24T23:58:42.508Z,7.20
